sensor_id;sensor_type;location;lat;lon;timestamp;P1;durP1;ratioP1;P2;durP2;ratioP2
76631;SDS011;65526;48.578;-4.520;2023-04-12T00:02:16;10.90;;;1.27;;
76631;SDS011;65526;48.578;-4.520;2023-04-12T00:04:45;6.70;;;1.17;;
76631;SDS011;65526;48.578;-4.520;2023-04-12T00:07:14;5.28;;;0.90;;
76631;SDS011;65526;48.578;-4.520;2023-04-12T00:09:43;8.95;;;1.17;;
76631;SDS011;65526;48.578;-4.520;2023-04-12T00:12:10;5.30;;;0.95;;
76631;SDS011;65526;48.578;-4.520;2023-04-12T00:14:36;5.68;;;0.77;;
76631;SDS011;65526;48.578;-4.520;2023-04-12T00:17:03;1.90;;;0.60;;
76631;SDS011;65526;48.578;-4.520;2023-04-12T00:19:29;8.07;;;1.05;;
76631;SDS011;65526;48.578;-4.520;2023-04-12T00:21:56;6.75;;;2.15;;
76631;SDS011;65526;48.578;-4.520;2023-04-12T00:24:24;7.97;;;1.05;;
76631;SDS011;65526;48.578;-4.520;2023-04-12T00:26:51;1.38;;;0.60;;
76631;SDS011;65526;48.578;-4.520;2023-04-12T00:29:18;4.07;;;0.85;;
76631;SDS011;65526;48.578;-4.520;2023-04-12T00:31:44;4.35;;;0.60;;
76631;SDS011;65526;48.578;-4.520;2023-04-12T00:34:12;4.63;;;1.38;;
76631;SDS011;65526;48.578;-4.520;2023-04-12T00:36:38;2.72;;;0.63;;
76631;SDS011;65526;48.578;-4.520;2023-04-12T00:39:08;4.85;;;0.93;;
76631;SDS011;65526;48.578;-4.520;2023-04-12T00:41:37;9.63;;;1.35;;
76631;SDS011;65526;48.578;-4.520;2023-04-12T00:44:03;4.60;;;0.52;;
76631;SDS011;65526;48.578;-4.520;2023-04-12T00:46:31;4.47;;;0.50;;
76631;SDS011;65526;48.578;-4.520;2023-04-12T00:48:57;2.70;;;0.52;;
76631;SDS011;65526;48.578;-4.520;2023-04-12T00:51:24;5.13;;;0.77;;
76631;SDS011;65526;48.578;-4.520;2023-04-12T00:53:54;14.10;;;0.80;;
76631;SDS011;65526;48.578;-4.520;2023-04-12T00:56:24;6.25;;;0.80;;
76631;SDS011;65526;48.578;-4.520;2023-04-12T00:58:54;6.22;;;1.45;;
76631;SDS011;65526;48.578;-4.520;2023-04-12T01:01:22;4.00;;;0.55;;
76631;SDS011;65526;48.578;-4.520;2023-04-12T01:03:48;6.88;;;1.30;;
76631;SDS011;65526;48.578;-4.520;2023-04-12T01:06:24;4.78;;;0.60;;
76631;SDS011;65526;48.578;-4.520;2023-04-12T01:15:12;11.70;;;2.45;;
76631;SDS011;65526;48.578;-4.520;2023-04-12T01:20:28;6.03;;;1.05;;
76631;SDS011;65526;48.578;-4.520;2023-04-12T01:28:23;4.32;;;0.50;;
76631;SDS011;65526;48.578;-4.520;2023-04-12T01:30:54;2.70;;;0.50;;
76631;SDS011;65526;48.578;-4.520;2023-04-12T01:33:21;9.90;;;1.35;;
76631;SDS011;65526;48.578;-4.520;2023-04-12T01:35:59;3.83;;;0.90;;
76631;SDS011;65526;48.578;-4.520;2023-04-12T01:38:27;4.68;;;0.90;;
76631;SDS011;65526;48.578;-4.520;2023-04-12T01:40:55;7.40;;;0.80;;
76631;SDS011;65526;48.578;-4.520;2023-04-12T01:43:22;7.43;;;1.20;;
76631;SDS011;65526;48.578;-4.520;2023-04-12T01:45:48;4.15;;;0.77;;
76631;SDS011;65526;48.578;-4.520;2023-04-12T01:48:14;4.85;;;0.60;;
76631;SDS011;65526;48.578;-4.520;2023-04-12T01:50:56;6.88;;;0.65;;
76631;SDS011;65526;48.578;-4.520;2023-04-12T01:53:49;6.30;;;0.95;;
76631;SDS011;65526;48.578;-4.520;2023-04-12T01:56:37;4.70;;;1.00;;
76631;SDS011;65526;48.578;-4.520;2023-04-12T01:59:09;6.60;;;0.70;;
76631;SDS011;65526;48.578;-4.520;2023-04-12T02:01:41;3.92;;;1.15;;
76631;SDS011;65526;48.578;-4.520;2023-04-12T02:04:08;8.98;;;1.27;;
76631;SDS011;65526;48.578;-4.520;2023-04-12T02:06:36;5.50;;;1.05;;
76631;SDS011;65526;48.578;-4.520;2023-04-12T02:09:03;4.93;;;0.63;;
76631;SDS011;65526;48.578;-4.520;2023-04-12T02:11:33;6.13;;;0.88;;
76631;SDS011;65526;48.578;-4.520;2023-04-12T02:13:59;5.03;;;0.90;;
76631;SDS011;65526;48.578;-4.520;2023-04-12T02:16:27;12.20;;;1.05;;
76631;SDS011;65526;48.578;-4.520;2023-04-12T02:18:58;7.28;;;1.48;;
76631;SDS011;65526;48.578;-4.520;2023-04-12T02:21:24;9.25;;;1.70;;
76631;SDS011;65526;48.578;-4.520;2023-04-12T02:23:53;4.13;;;1.00;;
76631;SDS011;65526;48.578;-4.520;2023-04-12T02:26:22;10.43;;;1.38;;
76631;SDS011;65526;48.578;-4.520;2023-04-12T02:28:49;6.10;;;0.80;;
76631;SDS011;65526;48.578;-4.520;2023-04-12T02:31:18;9.50;;;1.10;;
76631;SDS011;65526;48.578;-4.520;2023-04-12T02:33:46;7.60;;;1.23;;
76631;SDS011;65526;48.578;-4.520;2023-04-12T02:36:14;6.72;;;1.15;;
76631;SDS011;65526;48.578;-4.520;2023-04-12T02:38:40;9.10;;;1.60;;
76631;SDS011;65526;48.578;-4.520;2023-04-12T02:41:07;11.60;;;1.30;;
76631;SDS011;65526;48.578;-4.520;2023-04-12T02:43:34;6.18;;;0.77;;
76631;SDS011;65526;48.578;-4.520;2023-04-12T02:46:04;4.80;;;0.90;;
76631;SDS011;65526;48.578;-4.520;2023-04-12T02:48:39;4.70;;;0.88;;
76631;SDS011;65526;48.578;-4.520;2023-04-12T02:51:06;3.78;;;0.88;;
76631;SDS011;65526;48.578;-4.520;2023-04-12T02:53:34;8.40;;;1.50;;
76631;SDS011;65526;48.578;-4.520;2023-04-12T02:56:14;3.30;;;0.70;;
76631;SDS011;65526;48.578;-4.520;2023-04-12T02:58:47;4.82;;;0.70;;
76631;SDS011;65526;48.578;-4.520;2023-04-12T03:01:21;5.47;;;0.73;;
76631;SDS011;65526;48.578;-4.520;2023-04-12T03:04:07;6.35;;;0.60;;
76631;SDS011;65526;48.578;-4.520;2023-04-12T03:06:43;5.28;;;1.00;;
76631;SDS011;65526;48.578;-4.520;2023-04-12T03:09:21;3.70;;;0.75;;
76631;SDS011;65526;48.578;-4.520;2023-04-12T03:11:47;5.90;;;1.30;;
76631;SDS011;65526;48.578;-4.520;2023-04-12T03:14:14;4.82;;;0.80;;
76631;SDS011;65526;48.578;-4.520;2023-04-12T03:16:41;6.95;;;1.02;;
76631;SDS011;65526;48.578;-4.520;2023-04-12T03:19:13;9.23;;;1.10;;
76631;SDS011;65526;48.578;-4.520;2023-04-12T03:21:40;9.07;;;1.30;;
76631;SDS011;65526;48.578;-4.520;2023-04-12T03:24:06;8.13;;;1.08;;
76631;SDS011;65526;48.578;-4.520;2023-04-12T03:26:35;7.13;;;2.28;;
76631;SDS011;65526;48.578;-4.520;2023-04-12T03:29:11;10.55;;;1.75;;
76631;SDS011;65526;48.578;-4.520;2023-04-12T03:31:40;9.55;;;1.65;;
76631;SDS011;65526;48.578;-4.520;2023-04-12T03:34:08;8.00;;;1.67;;
76631;SDS011;65526;48.578;-4.520;2023-04-12T03:36:41;8.07;;;1.30;;
76631;SDS011;65526;48.578;-4.520;2023-04-12T03:39:26;8.68;;;2.08;;
76631;SDS011;65526;48.578;-4.520;2023-04-12T03:41:53;12.63;;;1.30;;
76631;SDS011;65526;48.578;-4.520;2023-04-12T03:44:25;7.68;;;1.40;;
76631;SDS011;65526;48.578;-4.520;2023-04-12T03:46:54;9.43;;;1.63;;
76631;SDS011;65526;48.578;-4.520;2023-04-12T03:49:25;10.60;;;1.52;;
76631;SDS011;65526;48.578;-4.520;2023-04-12T03:51:54;10.05;;;1.27;;
76631;SDS011;65526;48.578;-4.520;2023-04-12T03:54:22;11.93;;;1.30;;
76631;SDS011;65526;48.578;-4.520;2023-04-12T03:56:57;5.15;;;1.30;;
76631;SDS011;65526;48.578;-4.520;2023-04-12T03:59:52;6.28;;;0.73;;
76631;SDS011;65526;48.578;-4.520;2023-04-12T04:02:25;3.30;;;0.77;;
76631;SDS011;65526;48.578;-4.520;2023-04-12T04:04:56;5.90;;;1.20;;
76631;SDS011;65526;48.578;-4.520;2023-04-12T04:07:25;6.35;;;0.82;;
76631;SDS011;65526;48.578;-4.520;2023-04-12T04:09:54;3.45;;;0.43;;
76631;SDS011;65526;48.578;-4.520;2023-04-12T04:12:22;5.88;;;0.93;;
76631;SDS011;65526;48.578;-4.520;2023-04-12T04:15:00;4.78;;;0.68;;
76631;SDS011;65526;48.578;-4.520;2023-04-12T04:19:56;5.85;;;0.60;;
76631;SDS011;65526;48.578;-4.520;2023-04-12T04:22:26;10.05;;;1.00;;
76631;SDS011;65526;48.578;-4.520;2023-04-12T04:24:54;7.38;;;0.80;;
76631;SDS011;65526;48.578;-4.520;2023-04-12T04:27:23;13.43;;;1.27;;
76631;SDS011;65526;48.578;-4.520;2023-04-12T04:29:54;10.63;;;1.20;;
76631;SDS011;65526;48.578;-4.520;2023-04-12T04:32:33;14.68;;;1.30;;
76631;SDS011;65526;48.578;-4.520;2023-04-12T04:37:56;8.15;;;1.92;;
76631;SDS011;65526;48.578;-4.520;2023-04-12T04:40:32;7.95;;;1.00;;
76631;SDS011;65526;48.578;-4.520;2023-04-12T04:43:09;7.38;;;0.80;;
76631;SDS011;65526;48.578;-4.520;2023-04-12T04:45:40;8.23;;;1.17;;
76631;SDS011;65526;48.578;-4.520;2023-04-12T04:48:16;3.60;;;0.70;;
76631;SDS011;65526;48.578;-4.520;2023-04-12T04:53:16;6.40;;;0.75;;
76631;SDS011;65526;48.578;-4.520;2023-04-12T04:55:43;7.80;;;0.90;;
76631;SDS011;65526;48.578;-4.520;2023-04-12T04:58:10;8.85;;;1.00;;
76631;SDS011;65526;48.578;-4.520;2023-04-12T05:00:37;10.70;;;2.15;;
76631;SDS011;65526;48.578;-4.520;2023-04-12T05:03:07;6.32;;;0.77;;
76631;SDS011;65526;48.578;-4.520;2023-04-12T05:05:40;9.07;;;1.30;;
76631;SDS011;65526;48.578;-4.520;2023-04-12T05:08:16;9.35;;;1.23;;
76631;SDS011;65526;48.578;-4.520;2023-04-12T05:10:48;9.25;;;1.65;;
76631;SDS011;65526;48.578;-4.520;2023-04-12T05:13:20;15.20;;;1.83;;
76631;SDS011;65526;48.578;-4.520;2023-04-12T05:15:48;12.38;;;1.25;;
76631;SDS011;65526;48.578;-4.520;2023-04-12T05:18:28;10.10;;;1.55;;
76631;SDS011;65526;48.578;-4.520;2023-04-12T05:21:00;12.48;;;1.58;;
76631;SDS011;65526;48.578;-4.520;2023-04-12T05:23:28;10.73;;;1.45;;
76631;SDS011;65526;48.578;-4.520;2023-04-12T05:25:58;5.72;;;0.90;;
76631;SDS011;65526;48.578;-4.520;2023-04-12T05:28:27;5.97;;;0.90;;
76631;SDS011;65526;48.578;-4.520;2023-04-12T05:30:55;7.03;;;1.15;;
76631;SDS011;65526;48.578;-4.520;2023-04-12T05:33:28;13.13;;;1.50;;
76631;SDS011;65526;48.578;-4.520;2023-04-12T05:36:14;10.35;;;1.52;;
76631;SDS011;65526;48.578;-4.520;2023-04-12T05:38:42;7.93;;;0.80;;
76631;SDS011;65526;48.578;-4.520;2023-04-12T05:41:11;7.60;;;1.40;;
76631;SDS011;65526;48.578;-4.520;2023-04-12T05:43:39;12.77;;;1.40;;
76631;SDS011;65526;48.578;-4.520;2023-04-12T05:46:07;8.85;;;1.40;;
76631;SDS011;65526;48.578;-4.520;2023-04-12T05:48:35;3.30;;;1.17;;
76631;SDS011;65526;48.578;-4.520;2023-04-12T05:51:02;8.00;;;1.38;;
76631;SDS011;65526;48.578;-4.520;2023-04-12T05:53:30;7.07;;;1.17;;
76631;SDS011;65526;48.578;-4.520;2023-04-12T05:56:00;6.78;;;1.63;;
76631;SDS011;65526;48.578;-4.520;2023-04-12T05:58:27;11.23;;;1.50;;
76631;SDS011;65526;48.578;-4.520;2023-04-12T06:00:54;7.13;;;1.30;;
76631;SDS011;65526;48.578;-4.520;2023-04-12T06:03:21;12.73;;;2.00;;
76631;SDS011;65526;48.578;-4.520;2023-04-12T06:05:52;8.18;;;1.63;;
76631;SDS011;65526;48.578;-4.520;2023-04-12T06:08:24;18.05;;;1.67;;
76631;SDS011;65526;48.578;-4.520;2023-04-12T06:11:11;9.57;;;1.35;;
76631;SDS011;65526;48.578;-4.520;2023-04-12T06:13:38;6.13;;;0.85;;
76631;SDS011;65526;48.578;-4.520;2023-04-12T06:16:04;6.60;;;1.20;;
76631;SDS011;65526;48.578;-4.520;2023-04-12T06:18:31;10.13;;;0.90;;
76631;SDS011;65526;48.578;-4.520;2023-04-12T06:21:01;10.95;;;1.02;;
76631;SDS011;65526;48.578;-4.520;2023-04-12T06:23:30;7.10;;;1.10;;
76631;SDS011;65526;48.578;-4.520;2023-04-12T06:25:59;4.28;;;0.93;;
76631;SDS011;65526;48.578;-4.520;2023-04-12T06:28:28;10.52;;;1.75;;
76631;SDS011;65526;48.578;-4.520;2023-04-12T06:30:57;7.90;;;1.23;;
76631;SDS011;65526;48.578;-4.520;2023-04-12T06:33:25;13.75;;;2.28;;
76631;SDS011;65526;48.578;-4.520;2023-04-12T06:35:57;5.20;;;1.30;;
76631;SDS011;65526;48.578;-4.520;2023-04-12T06:38:38;8.05;;;1.55;;
76631;SDS011;65526;48.578;-4.520;2023-04-12T06:41:05;4.40;;;1.05;;
76631;SDS011;65526;48.578;-4.520;2023-04-12T06:43:33;9.07;;;1.88;;
76631;SDS011;65526;48.578;-4.520;2023-04-12T06:45:59;6.60;;;1.08;;
76631;SDS011;65526;48.578;-4.520;2023-04-12T06:48:28;12.45;;;1.50;;
76631;SDS011;65526;48.578;-4.520;2023-04-12T06:51:00;5.60;;;0.88;;
76631;SDS011;65526;48.578;-4.520;2023-04-12T06:53:32;6.70;;;1.10;;
76631;SDS011;65526;48.578;-4.520;2023-04-12T06:56:04;7.22;;;1.10;;
76631;SDS011;65526;48.578;-4.520;2023-04-12T06:58:34;11.38;;;1.30;;
76631;SDS011;65526;48.578;-4.520;2023-04-12T07:01:06;6.20;;;1.00;;
76631;SDS011;65526;48.578;-4.520;2023-04-12T07:03:37;14.27;;;1.50;;
76631;SDS011;65526;48.578;-4.520;2023-04-12T07:06:09;10.13;;;1.20;;
76631;SDS011;65526;48.578;-4.520;2023-04-12T07:08:36;11.77;;;2.00;;
76631;SDS011;65526;48.578;-4.520;2023-04-12T07:11:06;8.00;;;1.17;;
76631;SDS011;65526;48.578;-4.520;2023-04-12T07:13:32;14.32;;;1.80;;
76631;SDS011;65526;48.578;-4.520;2023-04-12T07:16:02;8.32;;;1.20;;
76631;SDS011;65526;48.578;-4.520;2023-04-12T07:18:29;6.40;;;1.25;;
76631;SDS011;65526;48.578;-4.520;2023-04-12T07:21:04;10.70;;;1.45;;
76631;SDS011;65526;48.578;-4.520;2023-04-12T07:23:39;6.78;;;1.40;;
76631;SDS011;65526;48.578;-4.520;2023-04-12T07:26:08;10.95;;;1.80;;
76631;SDS011;65526;48.578;-4.520;2023-04-12T07:28:36;14.43;;;1.63;;
76631;SDS011;65526;48.578;-4.520;2023-04-12T07:31:05;11.48;;;1.77;;
76631;SDS011;65526;48.578;-4.520;2023-04-12T07:33:32;11.93;;;2.05;;
76631;SDS011;65526;48.578;-4.520;2023-04-12T07:36:06;24.15;;;2.35;;
76631;SDS011;65526;48.578;-4.520;2023-04-12T07:38:32;13.10;;;1.88;;
76631;SDS011;65526;48.578;-4.520;2023-04-12T07:40:59;8.95;;;1.52;;
76631;SDS011;65526;48.578;-4.520;2023-04-12T07:43:25;11.95;;;1.80;;
76631;SDS011;65526;48.578;-4.520;2023-04-12T07:45:55;11.68;;;1.80;;
76631;SDS011;65526;48.578;-4.520;2023-04-12T07:48:21;12.68;;;1.88;;
76631;SDS011;65526;48.578;-4.520;2023-04-12T07:50:48;11.50;;;2.15;;
76631;SDS011;65526;48.578;-4.520;2023-04-12T07:55:48;18.35;;;3.47;;
76631;SDS011;65526;48.578;-4.520;2023-04-12T07:58:15;20.67;;;2.13;;
76631;SDS011;65526;48.578;-4.520;2023-04-12T08:00:45;17.15;;;2.20;;
76631;SDS011;65526;48.578;-4.520;2023-04-12T08:05:42;8.10;;;1.65;;
76631;SDS011;65526;48.578;-4.520;2023-04-12T08:08:09;9.07;;;1.25;;
76631;SDS011;65526;48.578;-4.520;2023-04-12T08:10:37;6.97;;;0.88;;
76631;SDS011;65526;48.578;-4.520;2023-04-12T08:13:08;4.30;;;0.60;;
76631;SDS011;65526;48.578;-4.520;2023-04-12T08:15:40;4.70;;;0.38;;
76631;SDS011;65526;48.578;-4.520;2023-04-12T08:18:12;3.95;;;0.70;;
76631;SDS011;65526;48.578;-4.520;2023-04-12T08:20:41;5.25;;;0.60;;
76631;SDS011;65526;48.578;-4.520;2023-04-12T09:42:11;10.63;;;1.55;;
76631;SDS011;65526;48.578;-4.520;2023-04-12T09:44:41;12.65;;;1.80;;
76631;SDS011;65526;48.578;-4.520;2023-04-12T09:47:12;9.10;;;1.58;;
76631;SDS011;65526;48.578;-4.520;2023-04-12T09:49:43;13.30;;;1.38;;
76631;SDS011;65526;48.578;-4.520;2023-04-12T09:52:14;16.73;;;1.50;;
76631;SDS011;65526;48.578;-4.520;2023-04-12T09:54:41;13.20;;;1.33;;
76631;SDS011;65526;48.578;-4.520;2023-04-12T09:57:10;15.38;;;2.20;;
76631;SDS011;65526;48.578;-4.520;2023-04-12T09:59:38;11.85;;;1.48;;
76631;SDS011;65526;48.578;-4.520;2023-04-12T10:02:15;7.80;;;1.08;;
76631;SDS011;65526;48.578;-4.520;2023-04-12T10:04:44;7.68;;;1.00;;
76631;SDS011;65526;48.578;-4.520;2023-04-12T10:07:11;12.00;;;2.67;;
76631;SDS011;65526;48.578;-4.520;2023-04-12T10:09:39;9.60;;;1.58;;
76631;SDS011;65526;48.578;-4.520;2023-04-12T10:12:06;7.60;;;1.88;;
76631;SDS011;65526;48.578;-4.520;2023-04-12T10:14:34;10.90;;;1.20;;
76631;SDS011;65526;48.578;-4.520;2023-04-12T10:17:08;4.80;;;1.20;;
76631;SDS011;65526;48.578;-4.520;2023-04-12T10:19:36;5.05;;;0.95;;
76631;SDS011;65526;48.578;-4.520;2023-04-12T10:22:04;8.10;;;1.55;;
76631;SDS011;65526;48.578;-4.520;2023-04-12T10:24:31;8.10;;;1.60;;
76631;SDS011;65526;48.578;-4.520;2023-04-12T10:26:57;12.70;;;2.00;;
76631;SDS011;65526;48.578;-4.520;2023-04-12T10:29:28;8.55;;;1.38;;
76631;SDS011;65526;48.578;-4.520;2023-04-12T10:31:58;10.90;;;1.23;;
76631;SDS011;65526;48.578;-4.520;2023-04-12T10:34:57;11.40;;;1.73;;
76631;SDS011;65526;48.578;-4.520;2023-04-12T10:40:32;12.30;;;1.70;;
76631;SDS011;65526;48.578;-4.520;2023-04-12T10:45:58;13.73;;;1.77;;
76631;SDS011;65526;48.578;-4.520;2023-04-12T10:51:33;10.02;;;2.45;;
76631;SDS011;65526;48.578;-4.520;2023-04-12T10:56:52;12.40;;;1.70;;
76631;SDS011;65526;48.578;-4.520;2023-04-12T11:00:03;14.95;;;2.50;;
76631;SDS011;65526;48.578;-4.520;2023-04-12T11:02:24;9.20;;;1.60;;
76631;SDS011;65526;48.578;-4.520;2023-04-12T11:07:52;6.97;;;1.13;;
76631;SDS011;65526;48.578;-4.520;2023-04-12T11:10:40;13.80;;;1.95;;
76631;SDS011;65526;48.578;-4.520;2023-04-12T11:13:17;8.52;;;1.25;;
76631;SDS011;65526;48.578;-4.520;2023-04-12T11:15:45;14.82;;;1.85;;
76631;SDS011;65526;48.578;-4.520;2023-04-12T11:18:11;13.70;;;1.83;;
76631;SDS011;65526;48.578;-4.520;2023-04-12T11:20:41;11.10;;;2.10;;
76631;SDS011;65526;48.578;-4.520;2023-04-12T11:23:07;12.88;;;2.17;;
76631;SDS011;65526;48.578;-4.520;2023-04-12T11:25:34;13.73;;;1.55;;
76631;SDS011;65526;48.578;-4.520;2023-04-12T11:28:01;13.98;;;2.20;;
76631;SDS011;65526;48.578;-4.520;2023-04-12T11:30:31;6.10;;;1.25;;
76631;SDS011;65526;48.578;-4.520;2023-04-12T11:32:57;7.63;;;1.35;;
76631;SDS011;65526;48.578;-4.520;2023-04-12T11:35:23;10.38;;;1.60;;
76631;SDS011;65526;48.578;-4.520;2023-04-12T11:37:55;12.45;;;1.38;;
76631;SDS011;65526;48.578;-4.520;2023-04-12T11:40:28;9.07;;;1.33;;
76631;SDS011;65526;48.578;-4.520;2023-04-12T11:45:27;11.88;;;1.67;;
76631;SDS011;65526;48.578;-4.520;2023-04-12T11:47:59;15.23;;;1.90;;
76631;SDS011;65526;48.578;-4.520;2023-04-12T11:53:07;13.70;;;2.72;;
76631;SDS011;65526;48.578;-4.520;2023-04-12T11:55:35;14.10;;;1.75;;
76631;SDS011;65526;48.578;-4.520;2023-04-12T11:58:03;10.60;;;1.70;;
76631;SDS011;65526;48.578;-4.520;2023-04-12T12:00:29;15.48;;;1.83;;
76631;SDS011;65526;48.578;-4.520;2023-04-12T12:03:00;16.92;;;2.25;;
76631;SDS011;65526;48.578;-4.520;2023-04-12T12:05:26;16.27;;;2.17;;
76631;SDS011;65526;48.578;-4.520;2023-04-12T12:07:53;11.90;;;2.10;;
76631;SDS011;65526;48.578;-4.520;2023-04-12T12:10:19;11.55;;;2.08;;
76631;SDS011;65526;48.578;-4.520;2023-04-12T12:12:46;18.40;;;2.45;;
76631;SDS011;65526;48.578;-4.520;2023-04-12T12:15:14;15.65;;;3.15;;
76631;SDS011;65526;48.578;-4.520;2023-04-12T12:17:40;15.93;;;3.47;;
76631;SDS011;65526;48.578;-4.520;2023-04-12T12:20:07;14.32;;;1.73;;
76631;SDS011;65526;48.578;-4.520;2023-04-12T12:22:48;9.82;;;1.80;;
76631;SDS011;65526;48.578;-4.520;2023-04-12T12:25:18;15.80;;;2.17;;
76631;SDS011;65526;48.578;-4.520;2023-04-12T12:27:55;11.25;;;1.83;;
76631;SDS011;65526;48.578;-4.520;2023-04-12T12:30:24;10.13;;;2.20;;
76631;SDS011;65526;48.578;-4.520;2023-04-12T12:32:50;10.77;;;1.77;;
76631;SDS011;65526;48.578;-4.520;2023-04-12T12:35:19;14.63;;;2.13;;
76631;SDS011;65526;48.578;-4.520;2023-04-12T12:37:56;20.52;;;2.45;;
76631;SDS011;65526;48.578;-4.520;2023-04-12T12:40:27;24.15;;;3.58;;
76631;SDS011;65526;48.578;-4.520;2023-04-12T12:43:00;19.48;;;2.55;;
76631;SDS011;65526;48.578;-4.520;2023-04-12T12:45:30;12.15;;;2.42;;
76631;SDS011;65526;48.578;-4.520;2023-04-12T12:48:01;13.43;;;1.70;;
76631;SDS011;65526;48.578;-4.520;2023-04-12T12:50:32;11.05;;;2.17;;
76631;SDS011;65526;48.578;-4.520;2023-04-12T12:53:02;22.77;;;2.50;;
76631;SDS011;65526;48.578;-4.520;2023-04-12T12:55:33;14.93;;;2.75;;
76631;SDS011;65526;48.578;-4.520;2023-04-12T12:58:05;15.05;;;2.33;;
76631;SDS011;65526;48.578;-4.520;2023-04-12T13:00:34;20.85;;;2.80;;
76631;SDS011;65526;48.578;-4.520;2023-04-12T13:03:12;18.67;;;4.32;;
76631;SDS011;65526;48.578;-4.520;2023-04-12T13:05:39;20.35;;;3.17;;
76631;SDS011;65526;48.578;-4.520;2023-04-12T13:08:06;10.80;;;2.30;;
76631;SDS011;65526;48.578;-4.520;2023-04-12T13:10:37;15.15;;;2.08;;
76631;SDS011;65526;48.578;-4.520;2023-04-12T13:13:13;11.63;;;1.38;;
76631;SDS011;65526;48.578;-4.520;2023-04-12T13:15:43;14.65;;;2.13;;
76631;SDS011;65526;48.578;-4.520;2023-04-12T13:18:14;18.90;;;2.20;;
76631;SDS011;65526;48.578;-4.520;2023-04-12T13:20:47;9.60;;;1.10;;
76631;SDS011;65526;48.578;-4.520;2023-04-12T13:23:15;8.57;;;1.23;;
76631;SDS011;65526;48.578;-4.520;2023-04-12T13:25:45;3.00;;;0.73;;
76631;SDS011;65526;48.578;-4.520;2023-04-12T13:28:12;6.68;;;0.93;;
76631;SDS011;65526;48.578;-4.520;2023-04-12T13:30:46;5.68;;;1.10;;
76631;SDS011;65526;48.578;-4.520;2023-04-12T13:33:16;4.78;;;0.95;;
76631;SDS011;65526;48.578;-4.520;2023-04-12T13:35:45;8.85;;;2.20;;
76631;SDS011;65526;48.578;-4.520;2023-04-12T13:38:13;12.85;;;1.65;;
76631;SDS011;65526;48.578;-4.520;2023-04-12T13:40:39;8.82;;;1.58;;
76631;SDS011;65526;48.578;-4.520;2023-04-12T13:43:05;7.05;;;1.35;;
76631;SDS011;65526;48.578;-4.520;2023-04-12T13:45:35;8.18;;;1.40;;
76631;SDS011;65526;48.578;-4.520;2023-04-12T13:48:04;13.80;;;2.20;;
76631;SDS011;65526;48.578;-4.520;2023-04-12T13:50:33;13.55;;;1.92;;
76631;SDS011;65526;48.578;-4.520;2023-04-12T13:53:04;10.90;;;2.30;;
76631;SDS011;65526;48.578;-4.520;2023-04-12T13:55:40;10.65;;;1.98;;
76631;SDS011;65526;48.578;-4.520;2023-04-12T13:58:11;11.90;;;1.85;;
76631;SDS011;65526;48.578;-4.520;2023-04-12T14:00:39;12.82;;;1.52;;
76631;SDS011;65526;48.578;-4.520;2023-04-12T14:03:09;11.25;;;1.80;;
76631;SDS011;65526;48.578;-4.520;2023-04-12T14:05:39;17.63;;;3.47;;
76631;SDS011;65526;48.578;-4.520;2023-04-12T14:08:10;13.77;;;2.75;;
76631;SDS011;65526;48.578;-4.520;2023-04-12T14:10:37;12.40;;;2.40;;
76631;SDS011;65526;48.578;-4.520;2023-04-12T14:13:13;12.15;;;2.15;;
76631;SDS011;65526;48.578;-4.520;2023-04-12T14:15:43;19.42;;;3.28;;
76631;SDS011;65526;48.578;-4.520;2023-04-12T14:18:09;25.75;;;4.13;;
76631;SDS011;65526;48.578;-4.520;2023-04-12T14:20:36;24.48;;;4.05;;
76631;SDS011;65526;48.578;-4.520;2023-04-12T14:23:06;27.00;;;3.58;;
76631;SDS011;65526;48.578;-4.520;2023-04-12T14:25:33;26.00;;;4.50;;
76631;SDS011;65526;48.578;-4.520;2023-04-12T14:28:05;28.13;;;3.58;;
76631;SDS011;65526;48.578;-4.520;2023-04-12T14:30:32;23.90;;;3.97;;
76631;SDS011;65526;48.578;-4.520;2023-04-12T14:32:58;19.08;;;3.95;;
76631;SDS011;65526;48.578;-4.520;2023-04-12T14:35:28;24.48;;;3.70;;
76631;SDS011;65526;48.578;-4.520;2023-04-12T14:37:57;26.02;;;3.63;;
76631;SDS011;65526;48.578;-4.520;2023-04-12T14:40:24;25.10;;;4.55;;
76631;SDS011;65526;48.578;-4.520;2023-04-12T14:42:52;17.25;;;3.15;;
76631;SDS011;65526;48.578;-4.520;2023-04-12T14:45:19;21.45;;;3.50;;
76631;SDS011;65526;48.578;-4.520;2023-04-12T14:47:49;26.08;;;4.10;;
76631;SDS011;65526;48.578;-4.520;2023-04-12T14:50:19;26.35;;;3.65;;
76631;SDS011;65526;48.578;-4.520;2023-04-12T14:52:46;29.33;;;3.75;;
76631;SDS011;65526;48.578;-4.520;2023-04-12T14:55:14;15.20;;;3.08;;
76631;SDS011;65526;48.578;-4.520;2023-04-12T14:57:44;19.58;;;2.67;;
76631;SDS011;65526;48.578;-4.520;2023-04-12T15:00:11;21.08;;;3.25;;
76631;SDS011;65526;48.578;-4.520;2023-04-12T15:02:42;28.75;;;3.50;;
76631;SDS011;65526;48.578;-4.520;2023-04-12T15:05:13;22.08;;;2.88;;
76631;SDS011;65526;48.578;-4.520;2023-04-12T15:07:46;19.13;;;4.97;;
76631;SDS011;65526;48.578;-4.520;2023-04-12T15:10:12;25.13;;;4.22;;
76631;SDS011;65526;48.578;-4.520;2023-04-12T15:12:44;26.13;;;3.25;;
76631;SDS011;65526;48.578;-4.520;2023-04-12T15:15:12;26.45;;;3.55;;
76631;SDS011;65526;48.578;-4.520;2023-04-12T15:17:43;23.58;;;3.60;;
76631;SDS011;65526;48.578;-4.520;2023-04-12T15:20:12;24.38;;;4.00;;
76631;SDS011;65526;48.578;-4.520;2023-04-12T15:22:43;21.15;;;3.53;;
76631;SDS011;65526;48.578;-4.520;2023-04-12T15:25:10;21.90;;;4.47;;
76631;SDS011;65526;48.578;-4.520;2023-04-12T15:27:52;25.67;;;3.80;;
76631;SDS011;65526;48.578;-4.520;2023-04-12T15:30:27;16.77;;;3.17;;
76631;SDS011;65526;48.578;-4.520;2023-04-12T15:32:56;20.92;;;5.00;;
76631;SDS011;65526;48.578;-4.520;2023-04-12T15:35:26;28.02;;;4.07;;
76631;SDS011;65526;48.578;-4.520;2023-04-12T15:38:05;30.27;;;4.82;;
76631;SDS011;65526;48.578;-4.520;2023-04-12T15:40:39;19.20;;;3.15;;
76631;SDS011;65526;48.578;-4.520;2023-04-12T15:43:12;23.95;;;3.50;;
76631;SDS011;65526;48.578;-4.520;2023-04-12T15:45:39;23.63;;;3.78;;
76631;SDS011;65526;48.578;-4.520;2023-04-12T15:48:07;29.65;;;4.55;;
76631;SDS011;65526;48.578;-4.520;2023-04-12T15:50:36;26.42;;;4.03;;
76631;SDS011;65526;48.578;-4.520;2023-04-12T15:53:11;24.65;;;3.80;;
76631;SDS011;65526;48.578;-4.520;2023-04-12T15:55:50;25.17;;;4.55;;
76631;SDS011;65526;48.578;-4.520;2023-04-12T15:58:26;23.00;;;3.45;;
76631;SDS011;65526;48.578;-4.520;2023-04-12T16:00:53;23.75;;;3.53;;
76631;SDS011;65526;48.578;-4.520;2023-04-12T16:03:28;22.55;;;6.85;;
76631;SDS011;65526;48.578;-4.520;2023-04-12T16:06:01;25.60;;;3.70;;
76631;SDS011;65526;48.578;-4.520;2023-04-12T16:08:28;15.90;;;2.47;;
76631;SDS011;65526;48.578;-4.520;2023-04-12T16:10:59;23.17;;;5.68;;
76631;SDS011;65526;48.578;-4.520;2023-04-12T16:13:29;24.13;;;3.30;;
76631;SDS011;65526;48.578;-4.520;2023-04-12T16:37:42;18.95;;;3.38;;
76631;SDS011;65526;48.578;-4.520;2023-04-12T16:40:12;22.98;;;3.63;;
76631;SDS011;65526;48.578;-4.520;2023-04-12T16:42:47;25.25;;;3.85;;
76631;SDS011;65526;48.578;-4.520;2023-04-12T16:45:15;22.17;;;3.13;;
76631;SDS011;65526;48.578;-4.520;2023-04-12T16:48:00;20.27;;;3.30;;
76631;SDS011;65526;48.578;-4.520;2023-04-12T16:50:29;24.60;;;4.00;;
76631;SDS011;65526;48.578;-4.520;2023-04-12T16:52:58;19.23;;;3.08;;
76631;SDS011;65526;48.578;-4.520;2023-04-12T16:55:26;30.00;;;5.07;;
76631;SDS011;65526;48.578;-4.520;2023-04-12T16:57:54;30.38;;;4.68;;
76631;SDS011;65526;48.578;-4.520;2023-04-12T17:00:24;23.52;;;2.90;;
76631;SDS011;65526;48.578;-4.520;2023-04-12T17:02:58;28.90;;;3.88;;
76631;SDS011;65526;48.578;-4.520;2023-04-12T17:05:32;20.30;;;3.03;;
76631;SDS011;65526;48.578;-4.520;2023-04-12T17:08:00;14.10;;;2.78;;
76631;SDS011;65526;48.578;-4.520;2023-04-12T17:10:31;20.23;;;3.10;;
76631;SDS011;65526;48.578;-4.520;2023-04-12T17:12:59;23.02;;;4.57;;
76631;SDS011;65526;48.578;-4.520;2023-04-12T17:15:28;30.27;;;4.40;;